Time;durP1;ratioP1;P1;durP2;ratioP2;P2;SDS_P1;SDS_P2;PMS_P1;PMS_P2;Temp;Humidity;BMP_temperature;BMP_pressure;BME280_temperature;BME280_humidity;BME280_pressure;Samples;Min_cycle;Max_cycle;Signal;HPM_P1;HPM_P2
2022/10/12 00:02:06;;;;;;;7.95;3.67;;;;;;;;;;5043931;28;20045;-73
2022/10/12 00:04:32;;;;;;;10.80;3.70;;;;;;;;;;5042223;28;20041;-73
2022/10/12 00:06:58;;;;;;;9.82;3.88;;;;;;;;;;5042162;28;20047;-73
2022/10/12 00:09:24;;;;;;;14.55;5.28;;;;;;;;;;5042546;28;20066;-73
2022/10/12 00:11:50;;;;;;;9.60;3.90;;;;;;;;;;5040608;28;20049;-73
2022/10/12 00:14:16;;;;;;;11.57;4.70;;;;;;;;;;5043025;28;20045;-73
2022/10/12 00:16:42;;;;;;;10.05;4.88;;;;;;;;;;5041478;28;20132;-74
2022/10/12 00:19:12;;;;;;;10.98;4.57;;;;;;;;;;5041363;28;20091;-74
2022/10/12 00:21:38;;;;;;;13.07;4.90;;;;;;;;;;5041678;28;20041;-74
2022/10/12 00:24:04;;;;;;;12.77;5.25;;;;;;;;;;5041839;28;20068;-73
2022/10/12 00:26:32;;;;;;;11.43;4.90;;;;;;;;;;5044420;28;20380;-73
2022/10/12 00:28:59;;;;;;;12.05;4.60;;;;;;;;;;5051816;28;20075;-73
2022/10/12 00:31:26;;;;;;;11.73;5.05;;;;;;;;;;5050229;28;20044;-73
2022/10/12 00:33:52;;;;;;;9.85;5.38;;;;;;;;;;5052189;28;20446;-74
2022/10/12 00:36:22;;;;;;;10.82;5.07;;;;;;;;;;5050037;28;20517;-73
2022/10/12 00:38:49;;;;;;;12.15;5.43;;;;;;;;;;5050431;28;20406;-74
2022/10/12 00:41:17;;;;;;;11.27;4.60;;;;;;;;;;5046621;28;20441;-73
2022/10/12 00:43:43;;;;;;;15.63;5.50;;;;;;;;;;5048916;28;20080;-74
2022/10/12 00:46:18;;;;;;;12.13;5.40;;;;;;;;;;5048755;28;20116;-74
2022/10/12 00:48:47;;;;;;;10.07;5.78;;;;;;;;;;5033593;28;20049;-74
2022/10/12 00:51:13;;;;;;;10.55;5.40;;;;;;;;;;5049497;28;20398;-74
2022/10/12 00:53:45;;;;;;;11.75;5.15;;;;;;;;;;5050286;28;20095;-73
2022/10/12 00:56:14;;;;;;;8.55;4.78;;;;;;;;;;5050798;28;20104;-74
2022/10/12 00:58:40;;;;;;;8.35;4.50;;;;;;;;;;5066228;28;20056;-74
2022/10/12 01:01:07;;;;;;;13.13;5.05;;;;;;;;;;5041911;28;20042;-74
2022/10/12 01:03:34;;;;;;;8.07;4.35;;;;;;;;;;5050965;28;20045;-74
2022/10/12 01:06:00;;;;;;;7.95;4.43;;;;;;;;;;5050291;28;20123;-73
2022/10/12 01:08:28;;;;;;;6.72;3.60;;;;;;;;;;5050222;28;20422;-74
2022/10/12 01:10:54;;;;;;;9.25;4.20;;;;;;;;;;5051483;28;20044;-73
2022/10/12 01:13:20;;;;;;;9.10;4.65;;;;;;;;;;5046884;28;20426;-74
2022/10/12 01:16:07;;;;;;;8.18;4.40;;;;;;;;;;5049838;28;20130;-74
2022/10/12 01:18:45;;;;;;;6.90;4.13;;;;;;;;;;5050942;28;20090;-74
2022/10/12 01:21:21;;;;;;;10.93;4.28;;;;;;;;;;5050488;28;20041;-74
2022/10/12 01:23:56;;;;;;;11.50;4.40;;;;;;;;;;5046873;28;20072;-73
2022/10/12 01:26:41;;;;;;;10.95;4.82;;;;;;;;;;5050283;28;20072;-73
2022/10/12 01:29:26;;;;;;;7.85;4.40;;;;;;;;;;5052680;28;20499;-74
2022/10/12 01:31:54;;;;;;;8.70;4.20;;;;;;;;;;5053530;28;20068;-73
2022/10/12 01:34:39;;;;;;;16.17;5.72;;;;;;;;;;5053883;28;20083;-73
2022/10/12 01:37:13;;;;;;;15.13;6.00;;;;;;;;;;5055567;28;20045;-74
2022/10/12 01:39:49;;;;;;;11.85;5.78;;;;;;;;;;5052829;28;20124;-74
2022/10/12 01:42:27;;;;;;;10.07;5.53;;;;;;;;;;5052144;28;20049;-74
2022/10/12 01:45:07;;;;;;;8.82;4.57;;;;;;;;;;5054611;28;20128;-75
2022/10/12 01:47:33;;;;;;;10.63;4.85;;;;;;;;;;5053153;28;20045;-74
2022/10/12 01:50:00;;;;;;;8.70;5.28;;;;;;;;;;5036072;28;20047;-74
2022/10/12 01:52:39;;;;;;;9.38;5.22;;;;;;;;;;5032045;28;20034;-74
2022/10/12 01:55:06;;;;;;;12.68;6.63;;;;;;;;;;5049084;28;20056;-74
2022/10/12 01:57:38;;;;;;;15.93;7.25;;;;;;;;;;5052583;28;20149;-74
2022/10/12 02:00:07;;;;;;;12.60;7.25;;;;;;;;;;5050251;28;20094;-73
2022/10/12 02:02:51;;;;;;;12.95;6.88;;;;;;;;;;5054016;28;20063;-74
2022/10/12 02:05:17;;;;;;;13.60;7.68;;;;;;;;;;5054590;28;20045;-73
2022/10/12 02:07:48;;;;;;;17.55;8.60;;;;;;;;;;5052803;28;20037;-73
2022/10/12 02:10:17;;;;;;;15.63;8.20;;;;;;;;;;5054896;28;20125;-74
2022/10/12 02:12:44;;;;;;;17.73;8.55;;;;;;;;;;5054612;28;20398;-74
2022/10/12 02:15:11;;;;;;;20.42;9.15;;;;;;;;;;5054326;28;20083;-74
2022/10/12 02:17:38;;;;;;;23.83;9.05;;;;;;;;;;5053510;28;20040;-73
2022/10/12 02:20:04;;;;;;;14.38;8.43;;;;;;;;;;5054780;28;20390;-73
2022/10/12 02:22:35;;;;;;;18.00;8.52;;;;;;;;;;5053428;28;20029;-73
2022/10/12 02:25:04;;;;;;;18.25;8.45;;;;;;;;;;5052575;28;20048;-73
2022/10/12 02:27:30;;;;;;;16.35;8.23;;;;;;;;;;5047672;28;20124;-74
2022/10/12 02:29:57;;;;;;;15.23;8.60;;;;;;;;;;5053515;28;20045;-74
2022/10/12 02:32:23;;;;;;;16.70;9.13;;;;;;;;;;5052577;28;20566;-73
2022/10/12 02:34:54;;;;;;;13.80;8.02;;;;;;;;;;5053400;28;20053;-74
2022/10/12 02:37:24;;;;;;;15.90;7.93;;;;;;;;;;5052336;28;20045;-73
2022/10/12 02:39:53;;;;;;;18.58;9.13;;;;;;;;;;5051449;28;20048;-74
2022/10/12 02:42:22;;;;;;;18.15;8.85;;;;;;;;;;5053446;28;20041;-74
2022/10/12 02:44:48;;;;;;;17.33;8.13;;;;;;;;;;5054150;28;20041;-73
2022/10/12 02:47:16;;;;;;;16.40;9.50;;;;;;;;;;5048403;28;20056;-73
2022/10/12 02:49:44;;;;;;;20.38;10.07;;;;;;;;;;5054935;28;20106;-74
2022/10/12 02:52:10;;;;;;;19.50;10.13;;;;;;;;;;5051533;28;20045;-74
2022/10/12 02:54:36;;;;;;;14.02;8.75;;;;;;;;;;5050349;28;20044;-74
2022/10/12 02:57:02;;;;;;;17.38;9.15;;;;;;;;;;5047694;28;20119;-73
2022/10/12 02:59:28;;;;;;;19.05;8.98;;;;;;;;;;5052856;28;20048;-74
2022/10/12 03:01:54;;;;;;;18.15;8.57;;;;;;;;;;5051137;28;20045;-73
2022/10/12 03:04:20;;;;;;;17.75;9.60;;;;;;;;;;5053183;28;20048;-73
2022/10/12 03:06:46;;;;;;;17.85;8.57;;;;;;;;;;5052237;28;20052;-74
2022/10/12 03:09:13;;;;;;;19.20;9.80;;;;;;;;;;5036693;28;20045;-74
2022/10/12 03:11:42;;;;;;;17.75;9.23;;;;;;;;;;5052456;28;20479;-74
2022/10/12 03:14:10;;;;;;;18.98;9.73;;;;;;;;;;5049734;28;20045;-74
2022/10/12 03:16:36;;;;;;;19.50;10.00;;;;;;;;;;5033690;28;20048;-74
2022/10/12 03:19:02;;;;;;;22.85;10.35;;;;;;;;;;5066521;28;20491;-73
2022/10/12 03:21:28;;;;;;;16.48;9.55;;;;;;;;;;5051842;28;20051;-74
2022/10/12 03:23:54;;;;;;;19.08;9.75;;;;;;;;;;5053254;28;20041;-74
2022/10/12 03:26:20;;;;;;;18.38;9.70;;;;;;;;;;5051892;28;20056;-74
2022/10/12 03:28:47;;;;;;;19.58;10.32;;;;;;;;;;5051191;28;20060;-73
2022/10/12 03:31:13;;;;;;;16.95;9.13;;;;;;;;;;5051771;28;20102;-74
2022/10/12 03:33:39;;;;;;;19.60;9.10;;;;;;;;;;5051815;28;20037;-73
2022/10/12 03:36:05;;;;;;;16.00;9.18;;;;;;;;;;5050071;28;20052;-73
2022/10/12 03:38:31;;;;;;;19.75;9.02;;;;;;;;;;5052977;28;20483;-73
2022/10/12 03:40:57;;;;;;;18.38;8.63;;;;;;;;;;5050875;28;20045;-73
2022/10/12 03:43:23;;;;;;;13.60;9.50;;;;;;;;;;5053248;28;20119;-73
2022/10/12 03:45:51;;;;;;;17.88;8.15;;;;;;;;;;5051060;28;20544;-73
2022/10/12 03:48:17;;;;;;;15.68;9.35;;;;;;;;;;5051476;28;20072;-74
2022/10/12 03:50:47;;;;;;;18.52;8.55;;;;;;;;;;5050988;28;20041;-73
2022/10/12 03:53:13;;;;;;;17.20;9.23;;;;;;;;;;5050131;28;20135;-74
2022/10/12 03:55:39;;;;;;;13.90;8.98;;;;;;;;;;5047180;28;20168;-73
2022/10/12 03:58:05;;;;;;;18.17;10.00;;;;;;;;;;5050795;28;20056;-73
2022/10/12 04:00:31;;;;;;;18.17;9.48;;;;;;;;;;5048819;28;20044;-73
2022/10/12 04:02:57;;;;;;;19.85;9.13;;;;;;;;;;5052344;28;20053;-74
2022/10/12 04:05:24;;;;;;;20.23;9.48;;;;;;;;;;5051013;28;20041;-74
2022/10/12 04:07:50;;;;;;;20.45;9.40;;;;;;;;;;5033510;28;20091;-74
2022/10/12 04:10:16;;;;;;;17.25;9.80;;;;;;;;;;5033321;28;20114;-74
2022/10/12 04:12:42;;;;;;;17.17;8.77;;;;;;;;;;5052041;28;20479;-73
2022/10/12 04:15:08;;;;;;;18.05;9.50;;;;;;;;;;5035594;28;20060;-73
2022/10/12 04:17:35;;;;;;;17.60;8.98;;;;;;;;;;5052238;28;20041;-74
2022/10/12 04:20:01;;;;;;;17.33;8.48;;;;;;;;;;5030556;28;20042;-73
2022/10/12 04:22:27;;;;;;;17.63;8.80;;;;;;;;;;5042601;28;20045;-73
2022/10/12 04:24:53;;;;;;;16.95;9.18;;;;;;;;;;5052100;28;20049;-73
2022/10/12 04:27:19;;;;;;;19.20;9.75;;;;;;;;;;5050672;28;20128;-73
2022/10/12 04:29:45;;;;;;;19.05;8.82;;;;;;;;;;5050360;28;20048;-73
2022/10/12 04:32:11;;;;;;;24.35;9.77;;;;;;;;;;5050651;28;20037;-73
2022/10/12 04:34:37;;;;;;;22.58;10.23;;;;;;;;;;5048992;28;20041;-74
2022/10/12 04:37:03;;;;;;;16.50;9.40;;;;;;;;;;5051415;28;20048;-73
2022/10/12 04:39:29;;;;;;;20.27;9.48;;;;;;;;;;5052735;28;20120;-73
2022/10/12 04:41:56;;;;;;;19.33;9.40;;;;;;;;;;5049534;28;20037;-73
2022/10/12 04:44:22;;;;;;;18.58;8.88;;;;;;;;;;5049591;28;20041;-73
2022/10/12 04:46:48;;;;;;;22.02;9.93;;;;;;;;;;5048522;28;20098;-73
2022/10/12 04:49:15;;;;;;;19.30;10.18;;;;;;;;;;5016189;28;20044;-73
2022/10/12 04:51:41;;;;;;;18.17;9.25;;;;;;;;;;5050845;28;20045;-73
2022/10/12 04:54:07;;;;;;;23.15;10.00;;;;;;;;;;5049860;28;20056;-74
2022/10/12 04:56:33;;;;;;;23.30;10.02;;;;;;;;;;5052069;28;20049;-73
2022/10/12 04:58:59;;;;;;;19.80;9.70;;;;;;;;;;5050384;28;20056;-73
2022/10/12 05:01:25;;;;;;;19.42;9.27;;;;;;;;;;5043707;28;20033;-73
2022/10/12 05:03:51;;;;;;;17.70;9.23;;;;;;;;;;5054059;28;20063;-73
2022/10/12 05:06:17;;;;;;;19.65;9.80;;;;;;;;;;5053005;28;20411;-73
2022/10/12 05:08:43;;;;;;;22.73;9.90;;;;;;;;;;5055297;28;20056;-73
2022/10/12 05:11:09;;;;;;;18.13;9.20;;;;;;;;;;5066489;28;20037;-73
2022/10/12 05:13:35;;;;;;;17.25;10.32;;;;;;;;;;5054371;28;20052;-73
2022/10/12 05:16:01;;;;;;;20.75;9.77;;;;;;;;;;5037917;28;20095;-73
2022/10/12 05:18:27;;;;;;;22.00;9.35;;;;;;;;;;5055256;28;20045;-73
2022/10/12 05:20:53;;;;;;;18.92;9.50;;;;;;;;;;5053417;28;20049;-73
2022/10/12 05:23:19;;;;;;;20.90;9.18;;;;;;;;;;5054164;28;20045;-73
2022/10/12 05:25:45;;;;;;;17.88;8.38;;;;;;;;;;5054334;28;20053;-73
2022/10/12 05:28:11;;;;;;;18.13;9.00;;;;;;;;;;5052189;28;20037;-73
2022/10/12 05:30:38;;;;;;;20.98;9.02;;;;;;;;;;5052227;28;20188;-73
2022/10/12 05:33:04;;;;;;;15.52;8.50;;;;;;;;;;5051609;28;20033;-73
2022/10/12 05:35:30;;;;;;;21.35;8.68;;;;;;;;;;5053901;28;20690;-73
2022/10/12 05:37:56;;;;;;;18.45;8.90;;;;;;;;;;5053817;28;20518;-74
2022/10/12 05:40:23;;;;;;;16.38;8.80;;;;;;;;;;5053731;28;20033;-74
2022/10/12 05:42:49;;;;;;;19.73;8.88;;;;;;;;;;5034595;28;20053;-73
2022/10/12 05:45:15;;;;;;;19.73;9.05;;;;;;;;;;5034718;28;20483;-73
2022/10/12 05:47:41;;;;;;;22.80;9.18;;;;;;;;;;5052581;28;20154;-73
2022/10/12 05:50:07;;;;;;;25.52;9.20;;;;;;;;;;5054370;28;20130;-73
2022/10/12 05:52:33;;;;;;;21.77;9.18;;;;;;;;;;5053110;28;20109;-74
2022/10/12 05:54:59;;;;;;;19.65;9.63;;;;;;;;;;5042673;28;20041;-73
2022/10/12 05:57:25;;;;;;;19.23;8.90;;;;;;;;;;5046251;28;20056;-73
2022/10/12 05:59:51;;;;;;;20.02;8.75;;;;;;;;;;5050367;28;20041;-74
2022/10/12 06:02:18;;;;;;;13.95;8.35;;;;;;;;;;5053234;28;20091;-73
2022/10/12 06:04:44;;;;;;;20.17;9.95;;;;;;;;;;5032970;28;20049;-73
2022/10/12 06:07:10;;;;;;;16.55;9.40;;;;;;;;;;5063482;28;20044;-73
2022/10/12 06:09:37;;;;;;;20.27;9.75;;;;;;;;;;5052465;28;20569;-73
2022/10/12 06:12:04;;;;;;;18.25;8.95;;;;;;;;;;5064497;28;20055;-74
2022/10/12 06:14:30;;;;;;;20.45;9.88;;;;;;;;;;5050684;28;20037;-74
2022/10/12 06:16:56;;;;;;;19.80;9.82;;;;;;;;;;5050393;28;20084;-73
2022/10/12 06:19:22;;;;;;;24.63;9.55;;;;;;;;;;5054359;28;20041;-73
2022/10/12 06:21:48;;;;;;;21.58;10.13;;;;;;;;;;5061183;28;20367;-73
2022/10/12 06:24:14;;;;;;;23.27;10.35;;;;;;;;;;5069456;28;20076;-74
2022/10/12 06:26:40;;;;;;;17.45;9.60;;;;;;;;;;5050519;28;20709;-74
2022/10/12 06:29:06;;;;;;;25.85;9.90;;;;;;;;;;5031032;28;20123;-74
2022/10/12 06:31:32;;;;;;;25.33;11.00;;;;;;;;;;5041836;28;20041;-74
2022/10/12 06:33:58;;;;;;;20.75;9.45;;;;;;;;;;5048746;28;20045;-73
2022/10/12 06:36:25;;;;;;;25.25;9.30;;;;;;;;;;5042598;28;20057;-74
2022/10/12 06:38:51;;;;;;;22.00;9.73;;;;;;;;;;5061484;28;20055;-74
2022/10/12 06:41:17;;;;;;;20.70;9.32;;;;;;;;;;5074357;28;20045;-74
2022/10/12 06:43:43;;;;;;;18.25;9.13;;;;;;;;;;5061932;28;20044;-74
2022/10/12 06:46:09;;;;;;;21.25;9.13;;;;;;;;;;5035355;28;20098;-74
2022/10/12 06:48:35;;;;;;;20.58;9.65;;;;;;;;;;5038990;28;20061;-74
2022/10/12 06:51:01;;;;;;;18.85;9.38;;;;;;;;;;5050918;28;20041;-74
2022/10/12 06:53:29;;;;;;;18.25;9.63;;;;;;;;;;5053270;28;20041;-74
2022/10/12 06:55:56;;;;;;;19.35;9.07;;;;;;;;;;5030588;28;20369;-74
2022/10/12 06:58:22;;;;;;;15.55;8.77;;;;;;;;;;5032329;28;20057;-74
2022/10/12 07:00:48;;;;;;;17.55;9.32;;;;;;;;;;5053144;28;20045;-74
2022/10/12 07:03:15;;;;;;;15.73;9.02;;;;;;;;;;5052202;28;20534;-74
2022/10/12 07:05:41;;;;;;;20.17;10.15;;;;;;;;;;5051852;28;20052;-74
2022/10/12 07:08:07;;;;;;;15.30;9.38;;;;;;;;;;5053136;28;20084;-74
2022/10/12 07:10:33;;;;;;;21.25;9.55;;;;;;;;;;5052019;28;20522;-74
2022/10/12 07:12:59;;;;;;;17.52;9.05;;;;;;;;;;5054191;28;20049;-74
2022/10/12 07:15:25;;;;;;;17.95;8.40;;;;;;;;;;5046843;28;20379;-74
2022/10/12 07:17:51;;;;;;;19.38;8.55;;;;;;;;;;5051245;28;20033;-75
2022/10/12 07:20:17;;;;;;;17.90;8.10;;;;;;;;;;5051916;28;20075;-74
2022/10/12 07:22:43;;;;;;;17.75;7.93;;;;;;;;;;5052555;28;20471;-74
2022/10/12 07:25:09;;;;;;;14.48;7.38;;;;;;;;;;5050952;28;20114;-75
2022/10/12 07:27:35;;;;;;;18.45;8.15;;;;;;;;;;5053198;28;20625;-74
2022/10/12 07:30:01;;;;;;;18.75;8.55;;;;;;;;;;5061751;28;20044;-74
2022/10/12 07:32:27;;;;;;;18.65;7.80;;;;;;;;;;5066601;28;20495;-74
2022/10/12 07:34:53;;;;;;;16.23;8.05;;;;;;;;;;5034059;28;20052;-74
2022/10/12 07:37:19;;;;;;;16.95;7.82;;;;;;;;;;5052448;28;20107;-74
2022/10/12 07:39:45;;;;;;;16.73;7.53;;;;;;;;;;5050911;28;20093;-74
2022/10/12 07:42:11;;;;;;;17.63;7.78;;;;;;;;;;5052622;28;20048;-74
2022/10/12 07:44:37;;;;;;;14.57;7.70;;;;;;;;;;5051661;28;20049;-74
2022/10/12 07:47:03;;;;;;;20.50;8.15;;;;;;;;;;5053323;28;20114;-74
2022/10/12 07:49:30;;;;;;;19.13;8.15;;;;;;;;;;5051359;28;20048;-74
2022/10/12 07:51:56;;;;;;;19.08;7.68;;;;;;;;;;5049490;28;20049;-74
2022/10/12 07:54:22;;;;;;;17.20;7.75;;;;;;;;;;5042270;28;20049;-74
2022/10/12 07:56:48;;;;;;;19.27;7.90;;;;;;;;;;5052665;28;20063;-74
2022/10/12 07:59:14;;;;;;;18.80;8.25;;;;;;;;;;5052573;28;20052;-74
2022/10/12 08:01:40;;;;;;;17.58;7.78;;;;;;;;;;5052359;28;20576;-74
2022/10/12 08:04:06;;;;;;;16.23;7.80;;;;;;;;;;5052675;28;20084;-74
2022/10/12 08:06:33;;;;;;;15.82;7.97;;;;;;;;;;5051975;28;20076;-74
2022/10/12 08:08:59;;;;;;;18.58;8.32;;;;;;;;;;5052747;28;20045;-74
2022/10/12 08:11:25;;;;;;;18.95;8.02;;;;;;;;;;5050482;28;20047;-74
2022/10/12 08:13:51;;;;;;;16.55;7.40;;;;;;;;;;5050549;28;20044;-74
2022/10/12 08:16:19;;;;;;;17.05;7.78;;;;;;;;;;5052156;28;20060;-74
2022/10/12 08:18:45;;;;;;;18.85;8.07;;;;;;;;;;5052211;28;20044;-74
2022/10/12 08:21:12;;;;;;;17.65;7.85;;;;;;;;;;5052280;28;20513;-74
2022/10/12 08:23:38;;;;;;;16.95;7.45;;;;;;;;;;5050651;28;20048;-74
2022/10/12 08:26:04;;;;;;;19.30;8.65;;;;;;;;;;5039100;28;20099;-74
2022/10/12 08:28:30;;;;;;;18.77;8.80;;;;;;;;;;5047160;28;20045;-74
2022/10/12 08:30:56;;;;;;;24.00;7.80;;;;;;;;;;5052370;28;20052;-74
2022/10/12 08:33:22;;;;;;;17.10;7.70;;;;;;;;;;5032842;28;20120;-74
2022/10/12 08:35:48;;;;;;;19.98;8.30;;;;;;;;;;5051169;28;20064;-74
2022/10/12 08:38:15;;;;;;;23.90;8.00;;;;;;;;;;5052307;28;20103;-74
2022/10/12 08:40:48;;;;;;;20.23;7.22;;;;;;;;;;5052124;28;20045;-74
2022/10/12 08:43:26;;;;;;;18.33;7.47;;;;;;;;;;5049996;28;20049;-74
2022/10/12 08:45:52;;;;;;;19.00;8.18;;;;;;;;;;5052247;28;20053;-74
2022/10/12 08:48:22;;;;;;;21.23;7.90;;;;;;;;;;5034214;28;20503;-74
2022/10/12 08:50:53;;;;;;;20.95;7.75;;;;;;;;;;5042674;28;20037;-74
2022/10/12 08:53:19;;;;;;;20.63;7.60;;;;;;;;;;5035796;28;20041;-74
2022/10/12 08:55:46;;;;;;;25.75;7.60;;;;;;;;;;5053880;28;20052;-74
2022/10/12 08:58:15;;;;;;;17.92;7.10;;;;;;;;;;5052067;28;20041;-74
2022/10/12 09:00:41;;;;;;;22.65;7.57;;;;;;;;;;5051957;28;20402;-74
2022/10/12 09:03:12;;;;;;;19.35;7.20;;;;;;;;;;5016444;28;20379;-74
2022/10/12 09:05:45;;;;;;;19.73;7.40;;;;;;;;;;5019151;28;20045;-74
2022/10/12 09:08:24;;;;;;;19.83;7.45;;;;;;;;;;5036159;28;20085;-74
2022/10/12 09:10:59;;;;;;;17.35;7.60;;;;;;;;;;5032072;28;20056;-74
2022/10/12 09:13:41;;;;;;;19.30;7.45;;;;;;;;;;5055236;28;20091;-74
2022/10/12 09:16:24;;;;;;;17.27;7.10;;;;;;;;;;5047641;28;20120;-74
2022/10/12 09:18:56;;;;;;;19.58;7.47;;;;;;;;;;5051827;28;20040;-74
2022/10/12 09:21:23;;;;;;;18.27;7.15;;;;;;;;;;5051363;28;20044;-74
2022/10/12 09:23:50;;;;;;;18.40;6.80;;;;;;;;;;5051543;28;20494;-74
2022/10/12 09:26:20;;;;;;;24.08;7.68;;;;;;;;;;5051688;28;20045;-74
2022/10/12 09:28:56;;;;;;;17.75;6.82;;;;;;;;;;5052067;28;20128;-74
2022/10/12 09:31:22;;;;;;;15.52;6.60;;;;;;;;;;5051502;28;20463;-74
2022/10/12 09:33:51;;;;;;;18.88;7.13;;;;;;;;;;5051688;28;20076;-74
2022/10/12 09:36:19;;;;;;;18.75;7.22;;;;;;;;;;5033490;28;20538;-74
2022/10/12 09:38:46;;;;;;;18.75;6.97;;;;;;;;;;5051390;28;20091;-74
2022/10/12 09:41:17;;;;;;;19.73;7.63;;;;;;;;;;5051446;28;20080;-74
2022/10/12 09:43:43;;;;;;;18.33;8.07;;;;;;;;;;5051290;28;20514;-74
2022/10/12 09:46:12;;;;;;;21.42;6.93;;;;;;;;;;5051962;28;20469;-74
2022/10/12 09:48:55;;;;;;;20.92;7.85;;;;;;;;;;5035779;28;20113;-74
2022/10/12 09:51:21;;;;;;;21.00;7.30;;;;;;;;;;5054853;28;20045;-74
2022/10/12 09:53:48;;;;;;;19.48;7.78;;;;;;;;;;5049346;28;20446;-74
2022/10/12 09:56:32;;;;;;;19.85;7.90;;;;;;;;;;5050558;28;20052;-74
2022/10/12 09:59:01;;;;;;;20.95;7.82;;;;;;;;;;5050964;28;20056;-74
2022/10/12 10:01:28;;;;;;;19.52;7.80;;;;;;;;;;5052994;28;20043;-74
2022/10/12 10:04:07;;;;;;;19.00;7.25;;;;;;;;;;5040961;28;20400;-74
2022/10/12 10:06:33;;;;;;;20.42;7.22;;;;;;;;;;5037461;28;20037;-74
2022/10/12 10:09:00;;;;;;;20.35;7.40;;;;;;;;;;5054093;28;20243;-74
2022/10/12 10:11:28;;;;;;;15.65;6.97;;;;;;;;;;5032169;28;20045;-74
2022/10/12 10:13:55;;;;;;;19.00;7.57;;;;;;;;;;5051951;28;20087;-73
2022/10/12 10:16:22;;;;;;;17.80;7.10;;;;;;;;;;5044292;28;20053;-73
2022/10/12 10:18:54;;;;;;;15.15;6.13;;;;;;;;;;5035744;28;20586;-73
2022/10/12 10:21:25;;;;;;;18.92;6.95;;;;;;;;;;5054500;28;20090;-73
2022/10/12 10:23:56;;;;;;;16.05;6.93;;;;;;;;;;5054241;28;20040;-74
2022/10/12 10:26:23;;;;;;;18.25;6.63;;;;;;;;;;5048947;28;20033;-74
2022/10/12 10:28:52;;;;;;;15.15;6.35;;;;;;;;;;5035876;28;20045;-74
2022/10/12 10:31:20;;;;;;;18.52;6.72;;;;;;;;;;5054264;28;20407;-74
2022/10/12 10:34:13;;;;;;;19.75;6.30;;;;;;;;;;5053411;28;20052;-75
2022/10/12 10:36:57;;;;;;;17.48;6.97;;;;;;;;;;5046545;28;20116;-74
2022/10/12 10:39:47;;;;;;;16.75;5.80;;;;;;;;;;5053353;28;20095;-74
2022/10/12 10:42:33;;;;;;;17.23;5.93;;;;;;;;;;5052643;28;20665;-74
2022/10/12 10:45:22;;;;;;;20.60;5.63;;;;;;;;;;5052350;28;20067;-72
2022/10/12 10:48:15;;;;;;;15.98;5.40;;;;;;;;;;5052439;28;20036;-73
2022/10/12 10:50:42;;;;;;;16.30;4.82;;;;;;;;;;5035953;28;20229;-73
2022/10/12 10:53:16;;;;;;;18.52;5.30;;;;;;;;;;5053956;28;20090;-73
2022/10/12 10:55:50;;;;;;;17.30;6.45;;;;;;;;;;5053234;28;20053;-72
2022/10/12 10:58:22;;;;;;;18.95;5.38;;;;;;;;;;5049660;28;20052;-72
2022/10/12 11:00:49;;;;;;;17.65;5.72;;;;;;;;;;5051650;28;20049;-72
2022/10/12 11:03:24;;;;;;;14.73;5.32;;;;;;;;;;5053497;28;20045;-72
2022/10/12 11:05:53;;;;;;;17.13;5.75;;;;;;;;;;5051703;28;20072;-72
2022/10/12 11:08:20;;;;;;;18.50;5.60;;;;;;;;;;5051623;28;20378;-72
2022/10/12 11:10:54;;;;;;;18.65;5.13;;;;;;;;;;5050897;28;20071;-72
2022/10/12 11:13:35;;;;;;;18.90;5.35;;;;;;;;;;5041142;28;20041;-76
2022/10/12 11:16:11;;;;;;;14.95;5.10;;;;;;;;;;5052161;28;20410;-77
2022/10/12 11:18:40;;;;;;;14.05;4.93;;;;;;;;;;5043955;28;20054;-77
2022/10/12 11:21:16;;;;;;;15.95;4.85;;;;;;;;;;5042141;28;20053;-77
2022/10/12 11:23:49;;;;;;;15.63;5.20;;;;;;;;;;5038361;28;20053;-72
2022/10/12 11:26:29;;;;;;;10.23;4.40;;;;;;;;;;5032989;28;20419;-73
2022/10/12 11:28:58;;;;;;;15.18;4.53;;;;;;;;;;5031215;28;20044;-73
2022/10/12 11:31:26;;;;;;;14.93;4.35;;;;;;;;;;5050399;28;20086;-72
2022/10/12 11:33:53;;;;;;;15.05;4.40;;;;;;;;;;5049043;28;20080;-73
2022/10/12 11:36:22;;;;;;;16.85;4.85;;;;;;;;;;5047574;28;20060;-72
2022/10/12 11:38:48;;;;;;;15.07;4.70;;;;;;;;;;5046977;28;20514;-72
2022/10/12 11:41:14;;;;;;;12.77;5.07;;;;;;;;;;5032773;28;20120;-72
2022/10/12 11:43:43;;;;;;;15.77;4.50;;;;;;;;;;5043118;28;20356;-72
2022/10/12 11:46:12;;;;;;;13.32;4.55;;;;;;;;;;5063946;28;20041;-72
2022/10/12 11:48:42;;;;;;;15.32;4.68;;;;;;;;;;5049245;28;20076;-72
2022/10/12 11:51:10;;;;;;;13.10;4.47;;;;;;;;;;5052444;28;20060;-72
2022/10/12 11:53:54;;;;;;;14.85;4.38;;;;;;;;;;5047473;28;20048;-72
2022/10/12 11:56:32;;;;;;;13.35;4.22;;;;;;;;;;5052463;28;20041;-72
2022/10/12 11:59:02;;;;;;;17.73;4.40;;;;;;;;;;5050760;28;20053;-72
2022/10/12 12:01:37;;;;;;;14.68;4.47;;;;;;;;;;5051663;28;20047;-72
2022/10/12 12:04:15;;;;;;;14.98;4.53;;;;;;;;;;5049177;28;20037;-73
2022/10/12 12:06:44;;;;;;;14.35;4.80;;;;;;;;;;5051631;28;20049;-73
2022/10/12 12:09:19;;;;;;;13.30;4.50;;;;;;;;;;5052284;28;20045;-77
2022/10/12 12:11:45;;;;;;;15.02;4.18;;;;;;;;;;5018109;28;20090;-75
2022/10/12 12:14:20;;;;;;;14.75;4.50;;;;;;;;;;5051255;28;20407;-72
2022/10/12 12:16:50;;;;;;;15.32;3.92;;;;;;;;;;5049674;28;20052;-73
2022/10/12 12:19:34;;;;;;;17.83;3.53;;;;;;;;;;5052823;28;20041;-72
2022/10/12 12:22:10;;;;;;;12.18;3.55;;;;;;;;;;5050974;28;20041;-72
2022/10/12 12:24:37;;;;;;;10.18;2.83;;;;;;;;;;5051766;28;20225;-73
2022/10/12 12:27:03;;;;;;;14.15;3.20;;;;;;;;;;5052248;28;20079;-72
2022/10/12 12:29:29;;;;;;;11.77;2.83;;;;;;;;;;5051845;28;20088;-75
2022/10/12 12:31:57;;;;;;;15.15;3.30;;;;;;;;;;5070640;28;20127;-73
2022/10/12 12:34:24;;;;;;;13.32;3.00;;;;;;;;;;5058698;28;20086;-74
2022/10/12 12:36:51;;;;;;;13.57;3.10;;;;;;;;;;5051391;28;20049;-72
2022/10/12 12:39:26;;;;;;;15.35;2.80;;;;;;;;;;5049858;28;20068;-73
2022/10/12 12:41:52;;;;;;;10.18;3.03;;;;;;;;;;5054711;28;20414;-73
2022/10/12 12:44:36;;;;;;;11.25;3.97;;;;;;;;;;5043442;28;20037;-73
2022/10/12 12:47:02;;;;;;;15.48;3.10;;;;;;;;;;5047859;28;20041;-73
2022/10/12 12:49:38;;;;;;;12.57;2.85;;;;;;;;;;5049363;28;20411;-73
2022/10/12 12:52:13;;;;;;;13.90;3.03;;;;;;;;;;5030485;28;20040;-73
2022/10/12 12:54:54;;;;;;;15.35;3.45;;;;;;;;;;5051628;28;20041;-73
2022/10/12 12:57:32;;;;;;;17.52;3.03;;;;;;;;;;5044036;28;20037;-73
2022/10/12 13:00:04;;;;;;;13.70;3.03;;;;;;;;;;5048367;28;20045;-73
2022/10/12 13:02:41;;;;;;;9.75;2.90;;;;;;;;;;5049351;28;20045;-73
2022/10/12 13:05:31;;;;;;;12.55;3.50;;;;;;;;;;5047264;28;20499;-73
2022/10/12 13:07:57;;;;;;;12.18;2.80;;;;;;;;;;5008931;28;20046;-73
2022/10/12 13:10:32;;;;;;;11.27;2.80;;;;;;;;;;5011927;28;20057;-73
2022/10/12 13:13:16;;;;;;;15.90;3.33;;;;;;;;;;5021508;28;20041;-73
2022/10/12 13:16:01;;;;;;;14.52;3.60;;;;;;;;;;4999365;28;20046;-73
2022/10/12 13:18:45;;;;;;;13.40;3.10;;;;;;;;;;4991926;28;20058;-73
2022/10/12 13:21:17;;;;;;;13.48;2.92;;;;;;;;;;4992287;28;20448;-73
2022/10/12 13:23:44;;;;;;;13.02;3.42;;;;;;;;;;5005869;28;20081;-73
2022/10/12 13:26:15;;;;;;;12.23;3.65;;;;;;;;;;4996562;28;20050;-73
2022/10/12 13:28:42;;;;;;;11.45;3.17;;;;;;;;;;5011781;28;20037;-73
2022/10/12 13:31:25;;;;;;;17.17;3.90;;;;;;;;;;5021909;28;20045;-73
2022/10/12 13:33:54;;;;;;;16.95;3.75;;;;;;;;;;5018344;28;20448;-73
2022/10/12 13:36:23;;;;;;;10.45;3.50;;;;;;;;;;5012809;28;20088;-73
2022/10/12 13:38:53;;;;;;;16.20;3.70;;;;;;;;;;5012096;28;20054;-73
2022/10/12 13:41:19;;;;;;;12.50;3.30;;;;;;;;;;4994146;28;20054;-73
2022/10/12 13:43:57;;;;;;;13.43;3.33;;;;;;;;;;5000010;28;20038;-73
2022/10/12 13:46:37;;;;;;;13.32;3.53;;;;;;;;;;5040391;28;20152;-72
2022/10/12 13:49:09;;;;;;;12.43;3.60;;;;;;;;;;5052839;28;20049;-72
2022/10/12 13:51:35;;;;;;;10.43;3.50;;;;;;;;;;5054451;28;20133;-74
2022/10/12 13:54:02;;;;;;;14.73;3.63;;;;;;;;;;5055017;28;20094;-73
2022/10/12 13:56:29;;;;;;;14.70;3.63;;;;;;;;;;5049995;28;20044;-73
2022/10/12 13:58:59;;;;;;;13.40;3.47;;;;;;;;;;5024357;28;20041;-73
2022/10/12 14:01:26;;;;;;;11.45;3.45;;;;;;;;;;5054108;28;21348;-73
2022/10/12 14:03:52;;;;;;;14.43;3.78;;;;;;;;;;5048399;28;20086;-74
2022/10/12 14:06:26;;;;;;;11.95;3.38;;;;;;;;;;5050008;28;20051;-73
2022/10/12 14:08:52;;;;;;;14.90;3.90;;;;;;;;;;5053786;28;20441;-73
2022/10/12 14:11:19;;;;;;;14.80;3.95;;;;;;;;;;5051559;28;20507;-73
2022/10/12 14:13:45;;;;;;;11.68;3.47;;;;;;;;;;5040755;28;20095;-73
2022/10/12 14:16:12;;;;;;;12.95;3.88;;;;;;;;;;5053035;28;20435;-73
2022/10/12 14:18:39;;;;;;;10.73;3.05;;;;;;;;;;5056640;28;20114;-73
2022/10/12 14:21:24;;;;;;;12.65;3.38;;;;;;;;;;5053146;28;20451;-73
2022/10/12 14:23:55;;;;;;;18.05;6.43;;;;;;;;;;5039732;28;20045;-73
2022/10/12 14:26:21;;;;;;;23.55;4.95;;;;;;;;;;5052955;28;20091;-73
2022/10/12 14:28:48;;;;;;;15.32;5.20;;;;;;;;;;5053238;28;20037;-73
2022/10/12 14:31:14;;;;;;;16.40;4.22;;;;;;;;;;5050024;28;20040;-73
2022/10/12 14:33:40;;;;;;;12.73;3.97;;;;;;;;;;5054177;28;20457;-73
2022/10/12 14:36:11;;;;;;;17.15;3.88;;;;;;;;;;5053376;28;20053;-73
2022/10/12 14:38:45;;;;;;;15.45;4.03;;;;;;;;;;5069206;28;20053;-73
2022/10/12 14:41:30;;;;;;;14.20;3.75;;;;;;;;;;5050440;28;20402;-74
2022/10/12 14:44:12;;;;;;;12.50;3.50;;;;;;;;;;5049217;28;20065;-73